sensor_id;sensor_type;location;lat;lon;timestamp;temperature;humidity
60293;DHT22;52402;52.670;6.750;2022-07-24T00:01:33;15.70;99.90
60293;DHT22;52402;52.670;6.750;2022-07-24T00:04:05;15.70;99.90
60293;DHT22;52402;52.670;6.750;2022-07-24T00:06:31;15.60;99.90
60293;DHT22;52402;52.670;6.750;2022-07-24T00:08:57;15.60;99.90
60293;DHT22;52402;52.670;6.750;2022-07-24T00:11:23;15.60;99.90
60293;DHT22;52402;52.670;6.750;2022-07-24T00:13:49;15.60;99.90
60293;DHT22;52402;52.670;6.750;2022-07-24T00:16:14;15.50;99.90
60293;DHT22;52402;52.670;6.750;2022-07-24T00:18:40;15.50;99.90
60293;DHT22;52402;52.670;6.750;2022-07-24T00:21:06;15.50;99.90
60293;DHT22;52402;52.670;6.750;2022-07-24T00:23:31;15.50;99.90
60293;DHT22;52402;52.670;6.750;2022-07-24T00:25:57;15.50;99.90
60293;DHT22;52402;52.670;6.750;2022-07-24T00:28:23;15.50;99.90
60293;DHT22;52402;52.670;6.750;2022-07-24T00:30:48;15.40;99.90
60293;DHT22;52402;52.670;6.750;2022-07-24T00:33:14;15.40;99.90
60293;DHT22;52402;52.670;6.750;2022-07-24T00:35:40;15.40;99.90
60293;DHT22;52402;52.670;6.750;2022-07-24T00:38:06;15.40;99.90
60293;DHT22;52402;52.670;6.750;2022-07-24T00:40:31;15.40;99.90
60293;DHT22;52402;52.670;6.750;2022-07-24T00:42:57;15.40;99.90
60293;DHT22;52402;52.670;6.750;2022-07-24T00:45:25;15.30;99.90
60293;DHT22;52402;52.670;6.750;2022-07-24T00:47:52;15.30;99.90
60293;DHT22;52402;52.670;6.750;2022-07-24T00:50:18;15.30;99.90
60293;DHT22;52402;52.670;6.750;2022-07-24T00:52:47;15.30;99.90
60293;DHT22;52402;52.670;6.750;2022-07-24T00:55:13;15.30;99.90
60293;DHT22;52402;52.670;6.750;2022-07-24T00:57:39;15.30;99.90
60293;DHT22;52402;52.670;6.750;2022-07-24T01:00:10;15.20;99.90
60293;DHT22;52402;52.670;6.750;2022-07-24T01:02:41;15.30;99.90
60293;DHT22;52402;52.670;6.750;2022-07-24T01:05:11;15.30;99.90
60293;DHT22;52402;52.670;6.750;2022-07-24T01:07:37;15.30;99.90
60293;DHT22;52402;52.670;6.750;2022-07-24T01:10:04;15.20;99.90
60293;DHT22;52402;52.670;6.750;2022-07-24T01:12:34;15.20;99.90
60293;DHT22;52402;52.670;6.750;2022-07-24T01:15:00;15.20;99.90
60293;DHT22;52402;52.670;6.750;2022-07-24T01:17:30;15.20;99.90
60293;DHT22;52402;52.670;6.750;2022-07-24T01:19:56;15.20;99.90
60293;DHT22;52402;52.670;6.750;2022-07-24T01:22:22;15.10;99.90
60293;DHT22;52402;52.670;6.750;2022-07-24T01:24:47;15.10;99.90
60293;DHT22;52402;52.670;6.750;2022-07-24T01:27:14;15.10;99.90
60293;DHT22;52402;52.670;6.750;2022-07-24T01:29:39;15.10;99.90
60293;DHT22;52402;52.670;6.750;2022-07-24T01:32:05;15.10;99.90
60293;DHT22;52402;52.670;6.750;2022-07-24T01:34:31;15.10;99.90
60293;DHT22;52402;52.670;6.750;2022-07-24T01:36:57;15.10;99.90
60293;DHT22;52402;52.670;6.750;2022-07-24T01:39:22;15.10;99.90
60293;DHT22;52402;52.670;6.750;2022-07-24T01:41:48;15.00;99.90
60293;DHT22;52402;52.670;6.750;2022-07-24T01:44:13;15.00;99.90
60293;DHT22;52402;52.670;6.750;2022-07-24T01:46:40;15.00;99.90
60293;DHT22;52402;52.670;6.750;2022-07-24T01:49:06;14.90;99.90
60293;DHT22;52402;52.670;6.750;2022-07-24T01:51:33;14.90;99.90
60293;DHT22;52402;52.670;6.750;2022-07-24T01:53:59;14.90;99.90
60293;DHT22;52402;52.670;6.750;2022-07-24T01:56:25;14.90;99.90
60293;DHT22;52402;52.670;6.750;2022-07-24T01:58:50;14.90;99.90
60293;DHT22;52402;52.670;6.750;2022-07-24T02:01:16;14.80;99.90
60293;DHT22;52402;52.670;6.750;2022-07-24T02:03:41;14.80;99.90
60293;DHT22;52402;52.670;6.750;2022-07-24T02:06:07;14.90;99.90
60293;DHT22;52402;52.670;6.750;2022-07-24T02:08:32;14.80;99.90
60293;DHT22;52402;52.670;6.750;2022-07-24T02:10:58;14.80;99.90
60293;DHT22;52402;52.670;6.750;2022-07-24T02:13:24;14.90;99.90
60293;DHT22;52402;52.670;6.750;2022-07-24T02:15:51;14.80;99.90
60293;DHT22;52402;52.670;6.750;2022-07-24T02:18:17;14.80;99.90
60293;DHT22;52402;52.670;6.750;2022-07-24T02:20:42;14.80;99.90
60293;DHT22;52402;52.670;6.750;2022-07-24T02:23:08;14.80;99.90
60293;DHT22;52402;52.670;6.750;2022-07-24T02:25:34;14.80;99.90
60293;DHT22;52402;52.670;6.750;2022-07-24T02:27:59;14.80;99.90
60293;DHT22;52402;52.670;6.750;2022-07-24T02:30:25;14.80;99.90
60293;DHT22;52402;52.670;6.750;2022-07-24T02:32:51;14.80;99.90
60293;DHT22;52402;52.670;6.750;2022-07-24T02:35:17;14.90;99.90
60293;DHT22;52402;52.670;6.750;2022-07-24T02:37:44;14.80;99.90
60293;DHT22;52402;52.670;6.750;2022-07-24T02:40:11;14.80;99.90
60293;DHT22;52402;52.670;6.750;2022-07-24T02:42:37;14.90;99.90
60293;DHT22;52402;52.670;6.750;2022-07-24T02:45:04;14.90;99.90
60293;DHT22;52402;52.670;6.750;2022-07-24T02:47:30;14.90;99.90
60293;DHT22;52402;52.670;6.750;2022-07-24T02:49:56;14.90;99.90
60293;DHT22;52402;52.670;6.750;2022-07-24T02:52:21;14.90;99.90
60293;DHT22;52402;52.670;6.750;2022-07-24T02:54:47;14.90;99.90
60293;DHT22;52402;52.670;6.750;2022-07-24T02:57:13;14.80;99.90
60293;DHT22;52402;52.670;6.750;2022-07-24T02:59:38;14.80;99.90
60293;DHT22;52402;52.670;6.750;2022-07-24T03:02:04;14.80;99.90
60293;DHT22;52402;52.670;6.750;2022-07-24T03:04:29;14.80;99.90
60293;DHT22;52402;52.670;6.750;2022-07-24T03:06:55;14.80;99.90
60293;DHT22;52402;52.670;6.750;2022-07-24T03:09:20;14.80;99.90
60293;DHT22;52402;52.670;6.750;2022-07-24T03:11:46;14.80;99.90
60293;DHT22;52402;52.670;6.750;2022-07-24T03:14:12;14.80;99.90
60293;DHT22;52402;52.670;6.750;2022-07-24T03:16:37;14.80;99.90
60293;DHT22;52402;52.670;6.750;2022-07-24T03:19:03;14.80;99.90
60293;DHT22;52402;52.670;6.750;2022-07-24T03:21:29;14.80;99.90
60293;DHT22;52402;52.670;6.750;2022-07-24T03:23:54;14.70;99.90
60293;DHT22;52402;52.670;6.750;2022-07-24T03:26:20;14.80;99.90
60293;DHT22;52402;52.670;6.750;2022-07-24T03:28:45;14.70;99.90
60293;DHT22;52402;52.670;6.750;2022-07-24T03:31:12;14.70;99.90
60293;DHT22;52402;52.670;6.750;2022-07-24T03:33:37;14.70;99.90
60293;DHT22;52402;52.670;6.750;2022-07-24T03:36:03;14.70;99.90
60293;DHT22;52402;52.670;6.750;2022-07-24T03:38:29;14.70;99.90
60293;DHT22;52402;52.670;6.750;2022-07-24T03:40:54;14.70;99.90
60293;DHT22;52402;52.670;6.750;2022-07-24T03:43:20;14.70;99.90
60293;DHT22;52402;52.670;6.750;2022-07-24T03:45:45;14.70;99.90
60293;DHT22;52402;52.670;6.750;2022-07-24T03:48:11;14.70;99.90
60293;DHT22;52402;52.670;6.750;2022-07-24T03:50:36;14.70;99.90
60293;DHT22;52402;52.670;6.750;2022-07-24T03:53:02;14.70;99.90
60293;DHT22;52402;52.670;6.750;2022-07-24T03:55:28;14.70;99.90
60293;DHT22;52402;52.670;6.750;2022-07-24T03:57:53;14.70;99.90
60293;DHT22;52402;52.670;6.750;2022-07-24T04:00:19;14.70;99.90
60293;DHT22;52402;52.670;6.750;2022-07-24T04:02:44;14.70;99.90
60293;DHT22;52402;52.670;6.750;2022-07-24T04:05:10;14.80;99.90
60293;DHT22;52402;52.670;6.750;2022-07-24T04:07:38;14.70;99.90
60293;DHT22;52402;52.670;6.750;2022-07-24T04:10:06;14.80;99.90
60293;DHT22;52402;52.670;6.750;2022-07-24T04:12:33;14.80;99.90
60293;DHT22;52402;52.670;6.750;2022-07-24T04:14:59;14.80;99.90
60293;DHT22;52402;52.670;6.750;2022-07-24T04:17:24;14.80;99.90
60293;DHT22;52402;52.670;6.750;2022-07-24T04:19:50;14.80;99.90
60293;DHT22;52402;52.670;6.750;2022-07-24T04:22:16;14.90;99.90
60293;DHT22;52402;52.670;6.750;2022-07-24T04:24:41;14.90;99.90
60293;DHT22;52402;52.670;6.750;2022-07-24T04:27:07;15.00;99.90
60293;DHT22;52402;52.670;6.750;2022-07-24T04:29:33;14.90;99.90
60293;DHT22;52402;52.670;6.750;2022-07-24T04:31:58;14.90;99.90
60293;DHT22;52402;52.670;6.750;2022-07-24T04:34:24;15.00;99.90
60293;DHT22;52402;52.670;6.750;2022-07-24T04:36:50;15.00;99.90
60293;DHT22;52402;52.670;6.750;2022-07-24T04:39:15;15.00;99.90
60293;DHT22;52402;52.670;6.750;2022-07-24T04:41:41;15.00;99.90
60293;DHT22;52402;52.670;6.750;2022-07-24T04:44:07;15.00;99.90
60293;DHT22;52402;52.670;6.750;2022-07-24T04:46:32;15.00;99.90
60293;DHT22;52402;52.670;6.750;2022-07-24T04:48:58;15.00;99.90
60293;DHT22;52402;52.670;6.750;2022-07-24T04:51:24;15.00;99.90
60293;DHT22;52402;52.670;6.750;2022-07-24T04:53:49;15.10;99.90
60293;DHT22;52402;52.670;6.750;2022-07-24T04:56:19;15.10;99.90
60293;DHT22;52402;52.670;6.750;2022-07-24T04:58:44;15.10;99.90
60293;DHT22;52402;52.670;6.750;2022-07-24T05:01:10;15.20;99.90
60293;DHT22;52402;52.670;6.750;2022-07-24T05:03:36;15.20;99.90
60293;DHT22;52402;52.670;6.750;2022-07-24T05:06:01;15.30;99.90
60293;DHT22;52402;52.670;6.750;2022-07-24T05:08:27;15.30;99.90
60293;DHT22;52402;52.670;6.750;2022-07-24T05:10:52;15.30;99.90
60293;DHT22;52402;52.670;6.750;2022-07-24T05:13:18;15.40;99.90
60293;DHT22;52402;52.670;6.750;2022-07-24T05:15:44;15.40;99.90
60293;DHT22;52402;52.670;6.750;2022-07-24T05:18:09;15.50;99.90
60293;DHT22;52402;52.670;6.750;2022-07-24T05:20:35;15.50;99.90
60293;DHT22;52402;52.670;6.750;2022-07-24T05:23:01;15.60;99.90
60293;DHT22;52402;52.670;6.750;2022-07-24T05:25:26;15.70;99.90
60293;DHT22;52402;52.670;6.750;2022-07-24T05:27:52;15.80;99.90
60293;DHT22;52402;52.670;6.750;2022-07-24T05:30:18;15.90;99.90
60293;DHT22;52402;52.670;6.750;2022-07-24T05:32:43;16.00;99.90
60293;DHT22;52402;52.670;6.750;2022-07-24T05:35:09;16.10;99.90
60293;DHT22;52402;52.670;6.750;2022-07-24T05:37:34;16.10;99.90
60293;DHT22;52402;52.670;6.750;2022-07-24T05:40:00;16.20;99.90
60293;DHT22;52402;52.670;6.750;2022-07-24T05:42:26;16.30;99.90
60293;DHT22;52402;52.670;6.750;2022-07-24T05:44:51;16.30;99.90
60293;DHT22;52402;52.670;6.750;2022-07-24T05:47:17;16.40;99.90
60293;DHT22;52402;52.670;6.750;2022-07-24T05:49:42;16.50;99.90
60293;DHT22;52402;52.670;6.750;2022-07-24T05:52:08;16.60;99.90
60293;DHT22;52402;52.670;6.750;2022-07-24T05:54:34;16.70;99.90
60293;DHT22;52402;52.670;6.750;2022-07-24T05:56:59;16.80;99.90
60293;DHT22;52402;52.670;6.750;2022-07-24T05:59:25;16.90;99.90
60293;DHT22;52402;52.670;6.750;2022-07-24T06:01:50;17.00;99.90
60293;DHT22;52402;52.670;6.750;2022-07-24T06:04:16;17.20;99.90
60293;DHT22;52402;52.670;6.750;2022-07-24T06:06:41;17.20;99.90
60293;DHT22;52402;52.670;6.750;2022-07-24T06:09:07;17.30;99.90
60293;DHT22;52402;52.670;6.750;2022-07-24T06:11:32;17.50;99.90
60293;DHT22;52402;52.670;6.750;2022-07-24T06:13:58;17.60;99.90
60293;DHT22;52402;52.670;6.750;2022-07-24T06:16:24;17.70;99.90
60293;DHT22;52402;52.670;6.750;2022-07-24T06:18:50;17.80;99.90
60293;DHT22;52402;52.670;6.750;2022-07-24T06:21:15;17.90;99.90
60293;DHT22;52402;52.670;6.750;2022-07-24T06:23:41;17.90;99.90
60293;DHT22;52402;52.670;6.750;2022-07-24T06:26:06;18.00;99.90
60293;DHT22;52402;52.670;6.750;2022-07-24T06:28:32;18.10;99.90
60293;DHT22;52402;52.670;6.750;2022-07-24T06:30:57;18.20;99.90
60293;DHT22;52402;52.670;6.750;2022-07-24T06:33:23;18.30;99.90
60293;DHT22;52402;52.670;6.750;2022-07-24T06:35:48;18.40;99.90
60293;DHT22;52402;52.670;6.750;2022-07-24T06:38:14;18.40;99.90
60293;DHT22;52402;52.670;6.750;2022-07-24T06:40:42;18.50;99.90
60293;DHT22;52402;52.670;6.750;2022-07-24T06:43:07;18.60;99.90
60293;DHT22;52402;52.670;6.750;2022-07-24T06:45:33;18.70;99.90
60293;DHT22;52402;52.670;6.750;2022-07-24T06:48:02;18.80;99.90
60293;DHT22;52402;52.670;6.750;2022-07-24T06:50:28;18.90;99.90
60293;DHT22;52402;52.670;6.750;2022-07-24T06:52:54;18.90;99.90
60293;DHT22;52402;52.670;6.750;2022-07-24T06:55:19;19.00;99.90
60293;DHT22;52402;52.670;6.750;2022-07-24T06:57:45;19.10;99.90
60293;DHT22;52402;52.670;6.750;2022-07-24T07:00:11;19.10;99.90
60293;DHT22;52402;52.670;6.750;2022-07-24T07:02:37;19.30;99.90
60293;DHT22;52402;52.670;6.750;2022-07-24T07:05:05;19.30;99.90
60293;DHT22;52402;52.670;6.750;2022-07-24T07:07:31;19.40;99.90
60293;DHT22;52402;52.670;6.750;2022-07-24T07:09:56;19.50;99.90
60293;DHT22;52402;52.670;6.750;2022-07-24T07:12:22;19.50;99.90
60293;DHT22;52402;52.670;6.750;2022-07-24T07:14:48;19.60;99.90
60293;DHT22;52402;52.670;6.750;2022-07-24T07:17:13;19.60;99.90
60293;DHT22;52402;52.670;6.750;2022-07-24T07:19:42;19.70;99.90
60293;DHT22;52402;52.670;6.750;2022-07-24T07:22:08;19.70;99.90
60293;DHT22;52402;52.670;6.750;2022-07-24T07:24:34;19.80;99.90
60293;DHT22;52402;52.670;6.750;2022-07-24T07:26:59;19.90;99.90
60293;DHT22;52402;52.670;6.750;2022-07-24T07:29:26;20.00;99.90
60293;DHT22;52402;52.670;6.750;2022-07-24T07:31:51;20.00;99.90
60293;DHT22;52402;52.670;6.750;2022-07-24T07:34:17;20.10;99.90
60293;DHT22;52402;52.670;6.750;2022-07-24T07:36:43;20.30;99.90
60293;DHT22;52402;52.670;6.750;2022-07-24T07:39:08;20.40;99.90
60293;DHT22;52402;52.670;6.750;2022-07-24T07:41:34;20.50;99.90
60293;DHT22;52402;52.670;6.750;2022-07-24T07:43:59;20.60;99.90
60293;DHT22;52402;52.670;6.750;2022-07-24T07:46:26;20.80;99.90
60293;DHT22;52402;52.670;6.750;2022-07-24T07:48:53;20.80;99.90
60293;DHT22;52402;52.670;6.750;2022-07-24T07:51:19;21.00;99.90
60293;DHT22;52402;52.670;6.750;2022-07-24T07:53:44;21.10;99.90
60293;DHT22;52402;52.670;6.750;2022-07-24T07:56:10;21.30;99.90
60293;DHT22;52402;52.670;6.750;2022-07-24T07:58:35;21.40;99.90
60293;DHT22;52402;52.670;6.750;2022-07-24T08:01:02;21.50;99.90
60293;DHT22;52402;52.670;6.750;2022-07-24T08:03:28;21.60;99.90
60293;DHT22;52402;52.670;6.750;2022-07-24T08:05:53;21.70;99.90
60293;DHT22;52402;52.670;6.750;2022-07-24T08:08:19;21.90;99.90
60293;DHT22;52402;52.670;6.750;2022-07-24T08:10:44;22.00;99.90
60293;DHT22;52402;52.670;6.750;2022-07-24T08:13:10;22.10;99.90
60293;DHT22;52402;52.670;6.750;2022-07-24T08:15:37;22.20;99.90
60293;DHT22;52402;52.670;6.750;2022-07-24T08:18:03;22.40;99.90
60293;DHT22;52402;52.670;6.750;2022-07-24T08:20:29;22.50;99.90
60293;DHT22;52402;52.670;6.750;2022-07-24T08:22:55;22.60;99.90
60293;DHT22;52402;52.670;6.750;2022-07-24T08:25:21;22.70;99.90
60293;DHT22;52402;52.670;6.750;2022-07-24T08:27:50;22.80;99.90
60293;DHT22;52402;52.670;6.750;2022-07-24T08:30:16;22.90;99.90
60293;DHT22;52402;52.670;6.750;2022-07-24T08:32:42;22.90;99.90
60293;DHT22;52402;52.670;6.750;2022-07-24T08:35:09;23.00;99.90
60293;DHT22;52402;52.670;6.750;2022-07-24T08:37:40;23.10;99.90
60293;DHT22;52402;52.670;6.750;2022-07-24T08:40:07;23.20;99.90
60293;DHT22;52402;52.670;6.750;2022-07-24T08:42:34;23.20;99.90
60293;DHT22;52402;52.670;6.750;2022-07-24T08:44:59;23.30;99.90
60293;DHT22;52402;52.670;6.750;2022-07-24T08:47:26;23.40;99.90
60293;DHT22;52402;52.670;6.750;2022-07-24T08:49:55;23.50;99.90
60293;DHT22;52402;52.670;6.750;2022-07-24T08:52:22;23.60;99.90
60293;DHT22;52402;52.670;6.750;2022-07-24T08:54:48;23.70;99.90
60293;DHT22;52402;52.670;6.750;2022-07-24T08:57:14;23.70;99.90
60293;DHT22;52402;52.670;6.750;2022-07-24T08:59:40;23.70;99.90
60293;DHT22;52402;52.670;6.750;2022-07-24T09:02:06;23.60;99.90
60293;DHT22;52402;52.670;6.750;2022-07-24T09:04:42;23.70;99.90
60293;DHT22;52402;52.670;6.750;2022-07-24T09:07:12;23.70;99.90
60293;DHT22;52402;52.670;6.750;2022-07-24T09:09:40;23.90;99.90
60293;DHT22;52402;52.670;6.750;2022-07-24T09:12:14;24.00;99.90
60293;DHT22;52402;52.670;6.750;2022-07-24T09:14:42;24.20;99.70
60293;DHT22;52402;52.670;6.750;2022-07-24T09:17:13;24.20;99.30
60293;DHT22;52402;52.670;6.750;2022-07-24T09:22:35;24.70;98.70
60293;DHT22;52402;52.670;6.750;2022-07-24T09:25:19;24.80;98.00
60293;DHT22;52402;52.670;6.750;2022-07-24T09:28:00;24.90;98.00
60293;DHT22;52402;52.670;6.750;2022-07-24T09:30:31;25.00;97.40
60293;DHT22;52402;52.670;6.750;2022-07-24T09:33:05;25.00;97.10
60293;DHT22;52402;52.670;6.750;2022-07-24T09:35:42;25.00;96.50
60293;DHT22;52402;52.670;6.750;2022-07-24T09:38:13;25.10;95.90
60293;DHT22;52402;52.670;6.750;2022-07-24T09:40:44;25.20;96.00
60293;DHT22;52402;52.670;6.750;2022-07-24T09:48:21;25.30;96.00
60293;DHT22;52402;52.670;6.750;2022-07-24T09:50:49;25.40;96.40
60293;DHT22;52402;52.670;6.750;2022-07-24T09:53:17;25.50;96.70
60293;DHT22;52402;52.670;6.750;2022-07-24T09:55:43;25.60;96.70
60293;DHT22;52402;52.670;6.750;2022-07-24T09:58:17;25.70;96.40
60293;DHT22;52402;52.670;6.750;2022-07-24T10:00:43;25.80;96.20
60293;DHT22;52402;52.670;6.750;2022-07-24T10:03:13;25.90;95.70
60293;DHT22;52402;52.670;6.750;2022-07-24T10:05:42;25.90;95.60
60293;DHT22;52402;52.670;6.750;2022-07-24T10:08:13;26.00;96.10
60293;DHT22;52402;52.670;6.750;2022-07-24T10:10:41;26.20;95.10
60293;DHT22;52402;52.670;6.750;2022-07-24T10:13:08;26.30;95.40
60293;DHT22;52402;52.670;6.750;2022-07-24T10:15:34;26.50;94.60
60293;DHT22;52402;52.670;6.750;2022-07-24T10:18:16;26.50;94.40
60293;DHT22;52402;52.670;6.750;2022-07-24T10:20:44;26.70;93.90
60293;DHT22;52402;52.670;6.750;2022-07-24T10:23:23;26.80;93.30
60293;DHT22;52402;52.670;6.750;2022-07-24T10:25:56;26.90;93.30
60293;DHT22;52402;52.670;6.750;2022-07-24T10:28:38;27.00;93.10
60293;DHT22;52402;52.670;6.750;2022-07-24T10:31:06;26.90;92.30
60293;DHT22;52402;52.670;6.750;2022-07-24T10:33:32;27.00;92.00
60293;DHT22;52402;52.670;6.750;2022-07-24T10:36:00;27.10;91.60
60293;DHT22;52402;52.670;6.750;2022-07-24T10:38:33;27.10;91.60
60293;DHT22;52402;52.670;6.750;2022-07-24T10:41:09;27.20;91.80
60293;DHT22;52402;52.670;6.750;2022-07-24T10:43:38;27.30;91.30
60293;DHT22;52402;52.670;6.750;2022-07-24T10:48:31;27.60;90.90
60293;DHT22;52402;52.670;6.750;2022-07-24T10:53:25;28.00;90.70
60293;DHT22;52402;52.670;6.750;2022-07-24T10:55:50;28.00;90.40
60293;DHT22;52402;52.670;6.750;2022-07-24T10:58:16;28.00;90.20
60293;DHT22;52402;52.670;6.750;2022-07-24T11:00:47;28.00;90.20
60293;DHT22;52402;52.670;6.750;2022-07-24T11:03:25;28.00;90.50
60293;DHT22;52402;52.670;6.750;2022-07-24T11:08:36;28.20;89.50
60293;DHT22;52402;52.670;6.750;2022-07-24T11:13:38;28.50;89.40
60293;DHT22;52402;52.670;6.750;2022-07-24T11:16:11;28.70;88.40
60293;DHT22;52402;52.670;6.750;2022-07-24T11:18:37;28.90;89.60
60293;DHT22;52402;52.670;6.750;2022-07-24T11:21:03;28.60;88.10
60293;DHT22;52402;52.670;6.750;2022-07-24T11:23:29;28.20;89.80
60293;DHT22;52402;52.670;6.750;2022-07-24T11:26:35;28.10;89.20
60293;DHT22;52402;52.670;6.750;2022-07-24T11:31:37;28.60;89.50
60293;DHT22;52402;52.670;6.750;2022-07-24T11:34:04;28.70;90.00
60293;DHT22;52402;52.670;6.750;2022-07-24T11:36:29;28.90;87.80
60293;DHT22;52402;52.670;6.750;2022-07-24T11:38:56;28.90;86.70
60293;DHT22;52402;52.670;6.750;2022-07-24T11:41:22;29.20;88.20
60293;DHT22;52402;52.670;6.750;2022-07-24T11:43:51;29.20;87.60
60293;DHT22;52402;52.670;6.750;2022-07-24T11:46:38;29.10;86.70
60293;DHT22;52402;52.670;6.750;2022-07-24T11:49:06;29.30;86.00
60293;DHT22;52402;52.670;6.750;2022-07-24T11:51:46;29.40;83.90
60293;DHT22;52402;52.670;6.750;2022-07-24T11:54:13;29.50;83.20
60293;DHT22;52402;52.670;6.750;2022-07-24T11:56:40;29.50;84.20
60293;DHT22;52402;52.670;6.750;2022-07-24T11:59:06;29.40;85.30
60293;DHT22;52402;52.670;6.750;2022-07-24T12:01:45;29.60;83.90
60293;DHT22;52402;52.670;6.750;2022-07-24T12:04:11;29.80;82.70
60293;DHT22;52402;52.670;6.750;2022-07-24T12:06:37;29.80;83.40
60293;DHT22;52402;52.670;6.750;2022-07-24T12:09:08;29.80;83.00
60293;DHT22;52402;52.670;6.750;2022-07-24T12:11:34;29.90;82.20
60293;DHT22;52402;52.670;6.750;2022-07-24T12:14:01;30.00;81.80
60293;DHT22;52402;52.670;6.750;2022-07-24T12:16:27;30.10;80.90
60293;DHT22;52402;52.670;6.750;2022-07-24T12:19:16;30.20;80.80
60293;DHT22;52402;52.670;6.750;2022-07-24T12:21:44;30.10;80.40
60293;DHT22;52402;52.670;6.750;2022-07-24T12:24:10;30.10;79.10
60293;DHT22;52402;52.670;6.750;2022-07-24T12:26:55;30.20;78.90
60293;DHT22;52402;52.670;6.750;2022-07-24T12:29:22;30.40;79.40
60293;DHT22;52402;52.670;6.750;2022-07-24T12:31:48;30.20;79.40
60293;DHT22;52402;52.670;6.750;2022-07-24T12:34:15;30.40;80.70
60293;DHT22;52402;52.670;6.750;2022-07-24T12:36:41;30.10;78.40
60293;DHT22;52402;52.670;6.750;2022-07-24T12:39:07;30.20;79.80
60293;DHT22;52402;52.670;6.750;2022-07-24T12:41:45;30.30;80.10
60293;DHT22;52402;52.670;6.750;2022-07-24T12:44:11;30.40;82.20
60293;DHT22;52402;52.670;6.750;2022-07-24T12:46:44;30.50;79.80
60293;DHT22;52402;52.670;6.750;2022-07-24T12:49:20;30.60;79.70
60293;DHT22;52402;52.670;6.750;2022-07-24T12:51:59;30.90;79.20
60293;DHT22;52402;52.670;6.750;2022-07-24T12:54:32;30.90;79.00
60293;DHT22;52402;52.670;6.750;2022-07-24T12:57:00;31.00;78.70
60293;DHT22;52402;52.670;6.750;2022-07-24T12:59:32;31.10;78.50
60293;DHT22;52402;52.670;6.750;2022-07-24T13:02:09;31.30;78.70
60293;DHT22;52402;52.670;6.750;2022-07-24T13:04:49;31.40;78.40
60293;DHT22;52402;52.670;6.750;2022-07-24T13:07:17;31.40;74.50
60293;DHT22;52402;52.670;6.750;2022-07-24T13:09:43;31.30;76.50
60293;DHT22;52402;52.670;6.750;2022-07-24T13:12:10;31.50;78.20
60293;DHT22;52402;52.670;6.750;2022-07-24T13:14:36;31.70;78.10
60293;DHT22;52402;52.670;6.750;2022-07-24T13:17:10;31.80;76.70
60293;DHT22;52402;52.670;6.750;2022-07-24T13:19:41;31.80;76.90
60293;DHT22;52402;52.670;6.750;2022-07-24T13:22:10;31.90;77.10
60293;DHT22;52402;52.670;6.750;2022-07-24T13:24:37;32.10;76.90
60293;DHT22;52402;52.670;6.750;2022-07-24T13:27:04;32.00;76.70
60293;DHT22;52402;52.670;6.750;2022-07-24T13:29:30;32.30;77.40
60293;DHT22;52402;52.670;6.750;2022-07-24T13:31:55;32.40;76.70
60293;DHT22;52402;52.670;6.750;2022-07-24T13:34:22;32.00;76.00
60293;DHT22;52402;52.670;6.750;2022-07-24T13:36:48;32.10;75.90
60293;DHT22;52402;52.670;6.750;2022-07-24T13:39:13;32.10;77.40
60293;DHT22;52402;52.670;6.750;2022-07-24T13:41:39;32.00;76.00
60293;DHT22;52402;52.670;6.750;2022-07-24T13:44:06;32.10;75.90
60293;DHT22;52402;52.670;6.750;2022-07-24T13:46:32;32.30;75.90
60293;DHT22;52402;52.670;6.750;2022-07-24T13:49:00;32.30;75.60
60293;DHT22;52402;52.670;6.750;2022-07-24T13:51:26;32.30;75.50
60293;DHT22;52402;52.670;6.750;2022-07-24T13:53:52;32.30;76.30
60293;DHT22;52402;52.670;6.750;2022-07-24T13:56:18;32.30;76.90
60293;DHT22;52402;52.670;6.750;2022-07-24T13:58:44;32.40;75.60
60293;DHT22;52402;52.670;6.750;2022-07-24T14:01:10;32.30;75.20
60293;DHT22;52402;52.670;6.750;2022-07-24T14:03:38;32.50;75.80
60293;DHT22;52402;52.670;6.750;2022-07-24T14:06:08;32.60;75.90
60293;DHT22;52402;52.670;6.750;2022-07-24T14:08:37;32.70;75.80
60293;DHT22;52402;52.670;6.750;2022-07-24T14:11:04;32.80;75.00
60293;DHT22;52402;52.670;6.750;2022-07-24T14:13:30;32.70;75.20
60293;DHT22;52402;52.670;6.750;2022-07-24T14:15:56;32.80;76.40
60293;DHT22;52402;52.670;6.750;2022-07-24T14:18:22;32.90;74.60
60293;DHT22;52402;52.670;6.750;2022-07-24T14:20:47;33.00;74.50
60293;DHT22;52402;52.670;6.750;2022-07-24T14:23:13;33.00;74.50
60293;DHT22;52402;52.670;6.750;2022-07-24T14:25:39;33.10;75.70
60293;DHT22;52402;52.670;6.750;2022-07-24T14:28:05;33.10;75.30
60293;DHT22;52402;52.670;6.750;2022-07-24T14:30:31;33.10;74.90
60293;DHT22;52402;52.670;6.750;2022-07-24T14:32:57;33.10;75.50
60293;DHT22;52402;52.670;6.750;2022-07-24T14:35:23;33.00;74.70
60293;DHT22;52402;52.670;6.750;2022-07-24T14:37:48;33.10;74.30
60293;DHT22;52402;52.670;6.750;2022-07-24T14:40:14;32.90;76.50
60293;DHT22;52402;52.670;6.750;2022-07-24T14:42:40;33.10;75.10
60293;DHT22;52402;52.670;6.750;2022-07-24T14:45:05;33.10;74.90
60293;DHT22;52402;52.670;6.750;2022-07-24T14:47:31;33.00;75.70
60293;DHT22;52402;52.670;6.750;2022-07-24T14:49:57;33.10;74.90
60293;DHT22;52402;52.670;6.750;2022-07-24T14:52:23;33.20;74.30
60293;DHT22;52402;52.670;6.750;2022-07-24T14:54:50;33.30;73.90
60293;DHT22;52402;52.670;6.750;2022-07-24T14:57:18;33.20;75.50
60293;DHT22;52402;52.670;6.750;2022-07-24T14:59:44;33.30;73.50
60293;DHT22;52402;52.670;6.750;2022-07-24T15:02:10;33.40;73.90
60293;DHT22;52402;52.670;6.750;2022-07-24T15:04:36;33.40;74.20
60293;DHT22;52402;52.670;6.750;2022-07-24T15:07:02;33.50;75.20
60293;DHT22;52402;52.670;6.750;2022-07-24T15:09:28;33.60;73.80
60293;DHT22;52402;52.670;6.750;2022-07-24T15:11:54;33.50;74.20
60293;DHT22;52402;52.670;6.750;2022-07-24T15:14:19;33.40;74.10
60293;DHT22;52402;52.670;6.750;2022-07-24T15:16:45;33.30;73.00
60293;DHT22;52402;52.670;6.750;2022-07-24T15:19:10;33.40;74.20
60293;DHT22;52402;52.670;6.750;2022-07-24T15:21:36;33.40;73.20
60293;DHT22;52402;52.670;6.750;2022-07-24T15:24:03;33.40;73.20
60293;DHT22;52402;52.670;6.750;2022-07-24T15:26:29;33.60;73.50
60293;DHT22;52402;52.670;6.750;2022-07-24T15:28:54;33.60;73.00
60293;DHT22;52402;52.670;6.750;2022-07-24T15:31:20;33.70;73.10
60293;DHT22;52402;52.670;6.750;2022-07-24T15:33:47;33.90;73.50
60293;DHT22;52402;52.670;6.750;2022-07-24T15:36:14;33.90;72.70
60293;DHT22;52402;52.670;6.750;2022-07-24T15:38:39;33.70;72.10
60293;DHT22;52402;52.670;6.750;2022-07-24T15:41:05;33.80;72.70
60293;DHT22;52402;52.670;6.750;2022-07-24T15:43:31;33.90;73.50
60293;DHT22;52402;52.670;6.750;2022-07-24T15:45:57;33.80;72.80
60293;DHT22;52402;52.670;6.750;2022-07-24T15:48:23;33.80;72.50
60293;DHT22;52402;52.670;6.750;2022-07-24T15:50:48;33.70;72.50